createdAt,value
2024-05-09T00:01:07.847Z,7.33
2024-05-09T00:04:12.659Z,7.40
2024-05-09T00:07:17.367Z,7.72
2024-05-09T00:10:33.167Z,8.15
2024-05-09T00:13:41.347Z,7.30
2024-05-09T00:16:46.042Z,7.90
2024-05-09T00:19:50.809Z,7.85
2024-05-09T00:22:55.528Z,7.25
2024-05-09T00:26:02.717Z,6.75
2024-05-09T00:29:07.416Z,7.35
2024-05-09T00:32:12.055Z,6.80
2024-05-09T00:35:16.841Z,7.15
2024-05-09T00:38:21.491Z,7.38
2024-05-09T00:41:28.867Z,8.65
2024-05-09T00:44:33.594Z,6.28
2024-05-09T00:47:38.779Z,6.87
2024-05-09T00:50:45.298Z,7.05
2024-05-09T00:53:50.753Z,6.15
2024-05-09T00:56:59.032Z,6.00
2024-05-09T01:00:06.074Z,5.82
2024-05-09T01:03:14.102Z,6.53
2024-05-09T01:06:19.293Z,5.97
2024-05-09T01:09:23.994Z,6.10
2024-05-09T01:12:31.417Z,6.07
2024-05-09T01:15:36.836Z,6.68
2024-05-09T01:18:41.682Z,7.13
2024-05-09T01:21:46.674Z,6.25
2024-05-09T01:24:54.485Z,7.88
2024-05-09T01:27:58.998Z,5.93
2024-05-09T01:31:03.646Z,6.68
2024-05-09T01:34:08.251Z,6.43
2024-05-09T01:37:12.907Z,6.47
2024-05-09T01:40:25.366Z,8.60
2024-05-09T01:43:38.595Z,5.90
2024-05-09T01:46:43.281Z,6.97
2024-05-09T01:49:47.905Z,6.13
2024-05-09T01:52:52.657Z,7.30
2024-05-09T01:55:59.863Z,7.07
2024-05-09T01:59:05.063Z,6.53
2024-05-09T02:02:10.217Z,7.00
2024-05-09T02:05:15.081Z,6.10
2024-05-09T02:08:21.853Z,6.82
2024-05-09T02:11:29.394Z,6.60
2024-05-09T02:14:34.077Z,6.38
2024-05-09T02:17:38.913Z,7.65
2024-05-09T02:20:44.399Z,6.97
2024-05-09T02:23:49.008Z,7.20
2024-05-09T02:26:56.163Z,6.95
2024-05-09T02:30:00.774Z,8.30
2024-05-09T02:33:05.739Z,8.07
2024-05-09T02:36:10.461Z,9.37
2024-05-09T02:39:12.414Z,6.32
2024-05-09T02:42:19.625Z,6.88
2024-05-09T02:45:21.522Z,7.50
2024-05-09T02:48:26.684Z,7.10
2024-05-09T02:51:28.742Z,6.50
2024-05-09T02:54:33.307Z,7.40
2024-05-09T02:57:37.906Z,8.10
2024-05-09T03:00:43.268Z,7.25
2024-05-09T03:03:45.908Z,7.45
2024-05-09T03:06:50.879Z,6.85
2024-05-09T03:09:52.813Z,7.00
2024-05-09T03:13:00.200Z,7.57
2024-05-09T03:16:02.197Z,7.20
2024-05-09T03:19:06.955Z,7.72
2024-05-09T03:22:08.994Z,7.05
2024-05-09T03:25:13.835Z,6.43
2024-05-09T03:28:21.075Z,6.10
2024-05-09T03:31:23.059Z,7.03
2024-05-09T03:34:28.018Z,5.97
2024-05-09T03:37:32.922Z,7.40
2024-05-09T03:40:37.595Z,7.47
2024-05-09T03:43:46.822Z,7.28
2024-05-09T03:46:51.735Z,7.78
2024-05-09T03:49:53.725Z,6.22
2024-05-09T03:52:58.343Z,6.45
2024-05-09T03:56:00.484Z,7.53
2024-05-09T03:59:07.716Z,7.72
2024-05-09T04:02:09.897Z,7.60
2024-05-09T04:05:14.589Z,7.15
2024-05-09T04:08:16.817Z,7.93
2024-05-09T04:11:21.683Z,7.07
2024-05-09T04:14:26.453Z,7.88
2024-05-09T04:17:31.296Z,8.30
2024-05-09T04:20:38.639Z,8.07
2024-05-09T04:23:45.245Z,7.32
2024-05-09T04:26:52.422Z,7.83
2024-05-09T04:29:57.031Z,7.47
2024-05-09T04:33:01.906Z,7.85
2024-05-09T04:36:07.028Z,9.05
2024-05-09T04:39:08.914Z,8.15
2024-05-09T04:42:13.421Z,8.43
2024-05-09T04:45:17.967Z,7.50
2024-05-09T04:48:22.689Z,7.72
2024-05-09T04:51:25.330Z,8.48
2024-05-09T04:54:35.966Z,8.02
2024-05-09T04:57:38.830Z,7.03
2024-05-09T05:00:46.043Z,8.00
2024-05-09T05:03:48.297Z,9.30
2024-05-09T05:06:52.844Z,7.10
2024-05-09T05:09:55.052Z,7.65
2024-05-09T05:13:15.312Z,7.37
2024-05-09T05:16:22.481Z,7.30
2024-05-09T05:19:24.519Z,8.90
2024-05-09T05:22:29.383Z,8.23
2024-05-09T05:25:31.966Z,7.10
2024-05-09T05:28:36.587Z,9.50
2024-05-09T05:31:41.205Z,8.15
2024-05-09T05:34:45.805Z,7.40
2024-05-09T05:37:47.787Z,8.23
2024-05-09T05:40:52.471Z,7.40
2024-05-09T05:43:57.022Z,6.50
2024-05-09T05:47:01.822Z,7.20
2024-05-09T05:50:17.601Z,6.15
2024-05-09T05:53:46.320Z,8.00
2024-05-09T05:56:50.857Z,9.53
2024-05-09T05:59:52.898Z,6.85
2024-05-09T06:03:00.298Z,7.05
2024-05-09T06:06:05.856Z,6.75
2024-05-09T06:09:08.013Z,6.40
2024-05-09T06:12:12.801Z,6.23
2024-05-09T06:15:14.855Z,6.55
2024-05-09T06:18:22.436Z,6.45
2024-05-09T06:21:24.586Z,6.70
2024-05-09T06:24:29.244Z,6.63
2024-05-09T06:27:31.162Z,7.00
2024-05-09T06:30:40.196Z,6.38
2024-05-09T06:33:49.166Z,6.75
2024-05-09T06:36:51.123Z,6.18
2024-05-09T06:39:55.659Z,6.65
2024-05-09T06:42:59.251Z,8.37
2024-05-09T06:46:04.160Z,6.38
2024-05-09T06:49:13.731Z,6.95
2024-05-09T06:52:19.524Z,5.65
2024-05-09T06:55:24.366Z,7.28
2024-05-09T06:58:26.271Z,8.17
2024-05-09T07:01:30.967Z,6.07
2024-05-09T07:04:35.759Z,5.68
2024-05-09T07:07:40.423Z,6.03
2024-05-09T07:10:45.140Z,7.20
2024-05-09T07:13:47.156Z,8.00
2024-05-09T07:16:51.897Z,6.22
2024-05-09T07:19:56.610Z,5.93
2024-05-09T07:23:01.684Z,7.13
2024-05-09T07:26:03.843Z,6.13
2024-05-09T07:29:08.649Z,5.13
2024-05-09T07:32:10.722Z,5.40
2024-05-09T07:35:18.149Z,7.18
2024-05-09T07:38:20.318Z,5.68
2024-05-09T07:41:25.118Z,6.53
2024-05-09T07:44:27.186Z,7.07
2024-05-09T07:48:57.488Z,5.38
2024-05-09T07:52:45.954Z,5.82
2024-05-09T07:54:21.978Z,5.68
2024-05-09T07:57:27.251Z,6.10
2024-05-09T08:00:32.287Z,6.37
2024-05-09T08:03:34.841Z,6.38
2024-05-09T08:06:42.704Z,5.65
2024-05-09T08:09:48.809Z,5.40
2024-05-09T08:12:54.035Z,6.40
2024-05-09T08:15:56.101Z,5.90
2024-05-09T08:19:00.891Z,5.38
2024-05-09T08:22:07.285Z,5.97
2024-05-09T08:25:15.589Z,4.23
2024-05-09T08:28:20.302Z,7.82
2024-05-09T08:31:25.142Z,4.97
2024-05-09T08:34:27.175Z,5.73
2024-05-09T08:37:38.737Z,6.33
2024-05-09T08:40:42.864Z,7.95
2024-05-09T08:43:47.604Z,5.00
2024-05-09T08:46:51.788Z,4.22
2024-05-09T08:49:58.669Z,5.67
2024-05-09T08:53:06.065Z,5.83
2024-05-09T08:56:11.491Z,5.28
2024-05-09T08:59:23.628Z,6.25
2024-05-09T09:02:26.706Z,5.90
2024-05-09T09:05:34.267Z,5.77
2024-05-09T09:08:39.652Z,5.97
2024-05-09T09:11:44.365Z,4.63
2024-05-09T09:14:46.242Z,4.97
2024-05-09T09:17:57.330Z,5.77
2024-05-09T09:21:02.885Z,4.80
2024-05-09T09:24:09.961Z,7.35
2024-05-09T09:27:16.662Z,5.47
2024-05-09T09:30:34.001Z,6.60
2024-05-09T09:33:44.922Z,4.67
2024-05-09T09:36:50.683Z,4.38
2024-05-09T09:39:55.573Z,6.15
2024-05-09T09:43:00.747Z,5.28
2024-05-09T09:46:07.207Z,6.50
2024-05-09T09:49:12.968Z,5.97
2024-05-09T09:52:15.462Z,6.22
2024-05-09T09:55:25.217Z,5.28
2024-05-09T09:58:29.383Z,4.10
2024-05-09T10:01:34.701Z,4.68
2024-05-09T10:04:40.847Z,5.60
2024-05-09T10:07:45.764Z,5.25
2024-05-09T10:10:53.993Z,4.82
2024-05-09T10:13:57.597Z,5.32
2024-05-09T10:17:07.342Z,4.70
2024-05-09T10:20:14.748Z,5.10
2024-05-09T10:23:27.506Z,3.88
2024-05-09T10:26:36.482Z,4.68
2024-05-09T10:29:41.030Z,4.35
2024-05-09T10:32:45.184Z,6.15
2024-05-09T10:35:54.327Z,5.10
2024-05-09T10:38:56.348Z,5.38
2024-05-09T10:42:03.967Z,5.57
2024-05-09T10:45:09.521Z,4.90
2024-05-09T10:48:12.062Z,4.72
2024-05-09T10:51:16.846Z,4.03
2024-05-09T10:54:21.431Z,4.82
2024-05-09T10:57:27.384Z,6.25
2024-05-09T11:00:36.195Z,6.20
2024-05-09T11:03:39.710Z,4.07
2024-05-09T11:06:44.954Z,4.60
2024-05-09T11:09:47.872Z,4.38
2024-05-09T11:12:55.120Z,5.07
2024-05-09T11:16:00.253Z,5.18
2024-05-09T11:19:02.589Z,4.60
2024-05-09T11:22:07.664Z,5.77
2024-05-09T11:25:13.052Z,4.47
2024-05-09T11:28:18.037Z,6.50
2024-05-09T11:31:22.771Z,5.18
2024-05-09T11:34:27.510Z,5.30
2024-05-09T11:37:31.354Z,3.73
2024-05-09T11:40:36.990Z,5.93
2024-05-09T11:43:44.151Z,4.35
2024-05-09T11:46:46.191Z,4.38
2024-05-09T11:49:50.758Z,5.88
2024-05-09T11:52:52.783Z,4.73
2024-05-09T11:55:57.347Z,4.05
2024-05-09T11:59:04.557Z,4.40
2024-05-09T12:02:06.756Z,4.05
2024-05-09T12:05:11.401Z,4.60
2024-05-09T12:08:14.351Z,4.03
2024-05-09T12:11:19.067Z,5.30
2024-05-09T12:14:26.275Z,4.80
2024-05-09T12:17:31.082Z,5.03
2024-05-09T12:20:37.601Z,5.38
2024-05-09T12:23:44.241Z,5.20
2024-05-09T12:26:46.303Z,4.80
2024-05-09T12:29:53.425Z,4.25
2024-05-09T12:32:55.546Z,4.57
2024-05-09T12:36:00.412Z,4.70
2024-05-09T12:39:02.925Z,5.00
2024-05-09T12:42:08.288Z,5.38
2024-05-09T12:45:13.690Z,4.72
2024-05-09T12:48:18.447Z,4.22
2024-05-09T12:51:23.098Z,4.07
2024-05-09T12:54:25.002Z,6.07
2024-05-09T12:57:29.816Z,4.57
2024-05-09T13:00:34.912Z,4.80
2024-05-09T13:03:39.772Z,4.32
2024-05-09T13:06:44.605Z,5.25
2024-05-09T13:09:46.740Z,4.20
2024-05-09T13:12:51.602Z,4.38
2024-05-09T13:15:56.174Z,4.60
2024-05-09T13:19:00.900Z,2.92
2024-05-09T13:22:02.894Z,4.10
2024-05-09T13:25:08.190Z,3.53
2024-05-09T13:28:10.440Z,5.03
2024-05-09T13:31:18.188Z,4.65
2024-05-09T13:34:20.412Z,5.82
2024-05-09T13:37:25.149Z,4.88
2024-05-09T13:40:32.939Z,4.97
2024-05-09T13:43:39.986Z,7.32
2024-05-09T13:46:44.645Z,4.70
2024-05-09T13:49:49.990Z,4.57
2024-05-09T13:52:52.086Z,4.00
2024-05-09T13:55:56.925Z,4.50
2024-05-09T13:58:59.173Z,4.65
2024-05-09T14:02:06.658Z,4.63
2024-05-09T14:05:09.070Z,5.35
2024-05-09T14:08:15.514Z,4.93
2024-05-09T14:11:20.304Z,4.07
2024-05-09T14:14:22.346Z,5.03
2024-05-09T14:17:29.776Z,4.82
2024-05-09T14:20:32.606Z,5.03
2024-05-09T14:23:37.495Z,5.43
2024-05-09T14:26:42.140Z,3.80
2024-05-09T14:29:44.243Z,4.75
2024-05-09T14:32:51.474Z,4.47
2024-05-09T14:35:53.922Z,4.53
2024-05-09T14:38:58.597Z,3.92
2024-05-09T14:42:00.634Z,4.60
2024-05-09T14:45:06.197Z,5.97
2024-05-09T14:48:11.544Z,4.07
2024-05-09T14:51:16.500Z,4.25
2024-05-09T14:54:21.079Z,5.55
2024-05-09T14:57:25.636Z,5.33
2024-05-09T15:00:33.121Z,4.25
2024-05-09T15:03:43.076Z,5.57
2024-05-09T15:06:45.314Z,6.10
2024-05-09T15:09:50.044Z,4.70
2024-05-09T15:12:52.196Z,5.07
2024-05-09T15:15:56.994Z,4.38
2024-05-09T15:19:02.114Z,5.78
2024-05-09T15:22:07.302Z,6.22
2024-05-09T15:25:09.325Z,4.60
2024-05-09T15:28:14.112Z,4.20
2024-05-09T15:31:18.734Z,5.18
2024-05-09T15:34:23.679Z,4.10
2024-05-09T15:37:28.797Z,3.90
2024-05-09T15:40:37.891Z,6.00
2024-05-09T15:43:44.923Z,4.20
2024-05-09T15:46:47.555Z,4.20
2024-05-09T15:49:54.920Z,4.72
2024-05-09T15:52:57.037Z,4.20
2024-05-09T15:56:01.794Z,4.75
2024-05-09T15:59:03.991Z,5.60
2024-05-09T16:02:11.394Z,5.43
2024-05-09T16:05:16.322Z,4.68
2024-05-09T16:08:21.015Z,5.72
2024-05-09T16:11:23.568Z,4.15
2024-05-09T16:14:28.190Z,5.40
2024-05-09T16:17:30.427Z,4.03
2024-05-09T16:20:41.114Z,5.95
2024-05-09T16:23:44.422Z,4.68
2024-05-09T16:26:48.965Z,4.60
2024-05-09T16:29:51.023Z,5.93
2024-05-09T16:32:55.869Z,5.47
2024-05-09T16:36:03.267Z,4.57
2024-05-09T16:39:05.169Z,4.45
2024-05-09T16:42:09.993Z,4.32
2024-05-09T16:45:12.383Z,4.57
2024-05-09T16:48:17.384Z,5.57
2024-05-09T16:51:24.726Z,4.93
2024-05-09T16:54:29.785Z,5.22
2024-05-09T16:57:31.787Z,4.40
2024-05-09T17:00:41.669Z,5.27
2024-05-09T17:03:45.686Z,5.70
2024-05-09T17:06:53.277Z,4.35
2024-05-09T17:09:57.843Z,4.07
2024-05-09T17:13:03.267Z,4.85
2024-05-09T17:16:10.342Z,4.47
2024-05-09T17:19:14.927Z,4.60
2024-05-09T17:22:20.258Z,4.50
2024-05-09T17:25:24.871Z,4.35
2024-05-09T17:28:26.970Z,4.70
2024-05-09T17:31:31.602Z,6.23
2024-05-09T17:34:33.733Z,6.30
2024-05-09T17:37:41.126Z,5.82
2024-05-09T17:40:43.173Z,7.47
2024-05-09T17:43:47.857Z,6.65
2024-05-09T17:46:49.978Z,6.77
2024-05-09T17:49:54.815Z,6.77
2024-05-09T17:52:59.597Z,6.10
2024-05-09T17:56:04.764Z,6.50
2024-05-09T17:59:09.186Z,6.25
2024-05-09T18:02:15.485Z,5.72
2024-05-09T18:05:17.611Z,5.63
2024-05-09T18:08:24.881Z,5.50
2024-05-09T18:11:29.589Z,6.32
2024-05-09T18:14:31.588Z,6.32
2024-05-09T18:17:37.335Z,7.40
2024-05-09T18:20:44.052Z,7.27
2024-05-09T18:23:55.495Z,7.90
2024-05-09T18:27:02.080Z,8.50
2024-05-09T18:30:09.311Z,8.52
2024-05-09T18:33:14.768Z,8.25
2024-05-09T18:36:22.193Z,7.73
2024-05-09T18:39:26.730Z,6.97
2024-05-09T18:42:31.394Z,6.30
2024-05-09T18:45:33.405Z,7.97
2024-05-09T18:48:38.324Z,10.27
2024-05-09T18:51:43.035Z,8.00
2024-05-09T18:54:50.434Z,7.60
2024-05-09T18:57:52.399Z,7.50
2024-05-09T19:00:59.899Z,7.05
2024-05-09T19:04:03.587Z,8.02
2024-05-09T19:07:08.876Z,8.00
2024-05-09T19:10:22.222Z,7.72
2024-05-09T19:13:30.603Z,7.85
2024-05-09T19:16:32.811Z,6.88
2024-05-09T19:19:37.680Z,7.10
2024-05-09T19:22:42.311Z,7.00
2024-05-09T19:25:49.445Z,6.57
2024-05-09T19:28:52.694Z,6.70
2024-05-09T19:31:57.305Z,6.18
2024-05-09T19:35:02.637Z,6.55
2024-05-09T19:38:05.337Z,6.53
2024-05-09T19:41:12.800Z,6.63
2024-05-09T19:44:14.798Z,7.22
2024-05-09T19:47:19.922Z,7.78
2024-05-09T19:50:32.419Z,7.72
2024-05-09T19:53:42.505Z,7.33
2024-05-09T19:56:49.760Z,8.40
2024-05-09T19:59:51.758Z,6.93
2024-05-09T20:02:56.595Z,7.63
2024-05-09T20:05:58.782Z,6.85
2024-05-09T20:09:03.312Z,6.80
2024-05-09T20:12:09.541Z,5.85
2024-05-09T20:15:14.093Z,6.70
2024-05-09T20:18:20.657Z,7.00
2024-05-09T20:21:22.755Z,6.40
2024-05-09T20:24:27.419Z,6.53
2024-05-09T20:27:32.019Z,7.45
2024-05-09T20:30:37.241Z,7.20
2024-05-09T20:33:39.441Z,7.20
2024-05-09T20:36:44.252Z,6.13
2024-05-09T20:39:48.923Z,6.17
2024-05-09T20:42:56.428Z,5.90
2024-05-09T20:46:01.059Z,5.60
2024-05-09T20:49:05.911Z,6.00
2024-05-09T20:52:08.110Z,6.45
2024-05-09T20:55:13.665Z,6.20
2024-05-09T20:58:21.292Z,8.30
2024-05-09T21:01:23.988Z,7.90
2024-05-09T21:04:28.735Z,6.63
2024-05-09T21:07:30.779Z,5.82
2024-05-09T21:10:35.856Z,6.10
2024-05-09T21:13:43.334Z,5.70
2024-05-09T21:16:45.432Z,6.60
2024-05-09T21:19:50.508Z,6.57
2024-05-09T21:22:52.477Z,7.07
2024-05-09T21:25:57.050Z,6.90
2024-05-09T21:29:01.943Z,7.10
2024-05-09T21:32:06.693Z,6.05
2024-05-09T21:35:08.976Z,7.63
2024-05-09T21:38:14.715Z,6.80
2024-05-09T21:41:17.057Z,6.70
2024-05-09T21:44:24.303Z,6.35
2024-05-09T21:47:29.166Z,6.28
2024-05-09T21:50:37.200Z,6.53
2024-05-09T21:53:45.443Z,6.63
2024-05-09T21:56:51.895Z,6.50
2024-05-09T21:59:56.707Z,6.55
2024-05-09T22:03:01.522Z,6.70
2024-05-09T22:06:03.730Z,6.68
2024-05-09T22:09:09.122Z,7.15
2024-05-09T22:12:14.067Z,6.67
2024-05-09T22:15:21.589Z,6.47
2024-05-09T22:18:23.892Z,6.53
2024-05-09T22:21:28.487Z,6.20
2024-05-09T22:24:30.401Z,6.88
2024-05-09T22:27:35.209Z,7.40
2024-05-09T22:30:40.607Z,6.85
2024-05-09T22:33:47.674Z,6.97
2024-05-09T22:36:50.220Z,7.13
2024-05-09T22:39:54.891Z,6.90
2024-05-09T22:42:56.881Z,7.27
2024-05-09T22:46:05.885Z,7.38
2024-05-09T22:49:07.937Z,7.50
2024-05-09T22:52:13.294Z,7.45
2024-05-09T22:55:15.791Z,6.95
2024-05-09T22:58:20.797Z,6.53
2024-05-09T23:01:28.221Z,7.45
2024-05-09T23:04:30.214Z,7.93
2024-05-09T23:07:35.116Z,6.18
2024-05-09T23:10:38.206Z,7.15
2024-05-09T23:13:43.197Z,7.57
2024-05-09T23:16:47.997Z,8.38
2024-05-09T23:19:52.733Z,7.32
2024-05-09T23:22:54.654Z,6.82
2024-05-09T23:25:59.213Z,6.28
2024-05-09T23:29:01.593Z,7.00
2024-05-09T23:32:09.544Z,5.65
2024-05-09T23:35:11.509Z,6.97
2024-05-09T23:38:16.555Z,8.05
2024-05-09T23:41:18.451Z,7.85
2024-05-09T23:44:23.040Z,7.93
2024-05-09T23:47:27.712Z,7.80
2024-05-09T23:50:36.190Z,7.43
2024-05-09T23:53:47.254Z,7.78
2024-05-09T23:56:49.145Z,7.43
2024-05-09T23:59:54.070Z,7.90
